Sioux Lookout Airport
CYXL : now visible

Airfield :











YOU CAN JOIN US ON...

 
LOGIN :

Register | Disclaimer

   EN    FR    IT 

 









Legend :    VFR   Marginal VFR   IFR   Intensive IFR   Very Intensive IFR
Visi :
Ceiling :
>= 8 km
>= 3000ft
5 to 8 km
1000 to 3000 ft
1500m to 5 km
500 to 1000 ft
800 to 1500m
200 to 500 ft
< 800m
< 200 ft
Symbols :   Thunderstorms  Fog  Heavy snow  Heavy precipitations  Wind > 20 kt






- Airport Elevation : 1258 ft
- IATA code : YXL


CYXL - Sioux Lookout

CURRENT METAR :
  • 041300Z 15004KT 15SM SCT080 BKN110 12/12 A3006 RMK ACC4AC3 INTMT -RA SLP190

EXPIRED METARs :
  • 041229Z 16003KT 15SM -RA BKN092 BKN110 11/11 A3006 RMK AC5AC2 SLP191
  • 041200Z 17003KT 15SM BKN091 11/11 A3006 RMK AC8 SLP191
  • 041136Z VRB02KT 15SM -RA BKN087 11/11 A3006 RMK AC7 SLP190
  • 041100Z 00000KT 15SM OVC084 11/11 A3006 RMK AC8 SLP191

TAF AMD TAF CYXL
Valid from the 04 at 10:00 until the 04 at 20:00 UTC


041009Z 0410/0420 VRB03KT P6SM SCT002 OVC080
PROB30 0410/0413 1/2SM FG BKN002
FM041400 17007KT P6SM BKN060
TEMPO 0414/0419 P6SM -SHRA RMK NXT FCST BY 041400Z
CZWG FIR / North America



MET'MAP, your aeronautical weather chart ! - Copyright ORBIFLY December 2007 - Disclaimer

ORBIFLY MET'MAP TEAM :

Programming & Development : Alexandra Zaïnal
Original concept : Baudouin d'Aumeries
Technical & hardware support : Manuel Goepfert
Assistance : Marc-Olivier Méhu




SOURCES & CREDITS :

   NOAA       Earth
Advisory